Time,TemperatureF,DewpointF,PressureIn,WindDirection,WindDirectionDegrees,WindSpeedMPH,WindSpeedGustMPH,Humidity,HourlyPrecipIn,Conditions,Clouds,dailyrainin,SolarRadiationWatts/m^2,SoftwareType,DateUTC
2013-01-29 00:04:00,41.0,39.0,29.38,SE,133,3.0,5.0,94,0.00,,,0.02,0.000000,,2013-01-29 05:04:00,
2013-01-29 00:10:00,40.0,39.0,29.37,NE,54,1.0,4.0,95,0.00,,,0.01,0.000000,,2013-01-29 05:10:00,
2013-01-29 00:32:00,40.0,39.0,29.37,NE,54,1.0,4.0,95,0.00,,,0.01,0.000000,,2013-01-29 05:32:00,
2013-01-29 00:43:00,40.0,39.0,29.37,NE,54,1.0,4.0,95,0.00,,,0.01,0.000000,,2013-01-29 05:43:00,
2013-01-29 00:52:00,40.0,39.0,29.37,NE,54,1.0,4.0,95,0.00,,,0.01,0.000000,,2013-01-29 05:52:00,
2013-01-29 01:02:00,40.0,39.0,29.37,NE,54,1.0,4.0,95,0.00,,,0.01,0.000000,,2013-01-29 06:02:00,
2013-01-29 01:10:00,40.0,39.0,29.37,East,85,2.0,4.0,96,0.00,,,0.01,0.000000,,2013-01-29 06:10:00,
2013-01-29 01:32:00,40.0,39.0,29.37,East,85,2.0,4.0,96,0.00,,,0.01,0.000000,,2013-01-29 06:32:00,
2013-01-29 01:42:00,40.0,39.0,29.37,East,85,2.0,4.0,96,0.00,,,0.01,0.000000,,2013-01-29 06:42:00,
2013-01-29 01:52:00,40.0,39.0,29.37,East,85,2.0,4.0,96,0.00,,,0.01,0.000000,,2013-01-29 06:52:00,
2013-01-29 02:02:00,40.0,39.0,29.37,East,85,2.0,4.0,96,0.00,,,0.01,0.000000,,2013-01-29 07:02:00,
2013-01-29 02:10:00,40.0,39.0,29.36,NNW,332,1.0,4.0,97,0.00,,,0.01,0.000000,,2013-01-29 07:10:00,
2013-01-29 02:32:00,40.0,39.0,29.36,NNW,332,1.0,4.0,97,0.00,,,0.01,0.000000,,2013-01-29 07:32:00,
2013-01-29 02:42:00,40.0,39.0,29.36,NNW,332,1.0,4.0,97,0.00,,,0.01,0.000000,,2013-01-29 07:42:00,
2013-01-29 02:52:00,40.0,39.0,29.36,NNW,332,1.0,4.0,97,0.00,,,0.01,0.000000,,2013-01-29 07:52:00,
2013-01-29 03:02:00,40.0,39.0,29.36,NNW,332,1.0,4.0,97,0.00,,,0.01,0.000000,,2013-01-29 08:02:00,
2013-01-29 03:10:00,36.0,35.0,29.36,West,280,1.0,3.0,97,0.00,,,0.01,0.000000,,2013-01-29 08:10:00,
2013-01-29 03:32:00,36.0,35.0,29.36,West,280,1.0,3.0,97,0.00,,,0.01,0.000000,,2013-01-29 08:32:00,
2013-01-29 03:42:00,36.0,35.0,29.36,West,280,1.0,3.0,97,0.00,,,0.01,0.000000,,2013-01-29 08:42:00,
2013-01-29 03:52:00,36.0,35.0,29.36,West,280,1.0,3.0,97,0.00,,,0.01,0.000000,,2013-01-29 08:52:00,
2013-01-29 04:02:00,36.0,35.0,29.36,West,280,1.0,3.0,97,0.00,,,0.01,0.000000,,2013-01-29 09:02:00,
2013-01-29 04:10:00,35.0,34.0,29.34,North,349,2.0,5.0,97,0.00,,,0.01,0.000000,,2013-01-29 09:10:00,
2013-01-29 04:32:00,35.0,34.0,29.34,North,349,2.0,5.0,97,0.00,,,0.01,0.000000,,2013-01-29 09:32:00,
2013-01-29 04:42:00,35.0,34.0,29.34,North,349,2.0,5.0,97,0.00,,,0.01,0.000000,,2013-01-29 09:42:00,
2013-01-29 04:52:00,35.0,34.0,29.34,North,349,2.0,5.0,97,0.00,,,0.01,0.000000,,2013-01-29 09:52:00,
2013-01-29 05:02:00,35.0,34.0,29.34,North,349,2.0,5.0,97,0.00,,,0.01,0.000000,,2013-01-29 10:02:00,
2013-01-29 05:10:00,36.0,35.0,29.34,NNE,13,0.0,5.0,98,0.00,,,0.00,0.000000,,2013-01-29 10:10:00,
2013-01-29 05:42:00,36.0,35.0,29.34,NNE,13,0.0,5.0,98,0.00,,,0.00,0.000000,,2013-01-29 10:42:00,
2013-01-29 05:52:00,36.0,35.0,29.34,NNE,13,0.0,5.0,98,0.00,,,0.00,0.000000,,2013-01-29 10:52:00,
2013-01-29 06:02:00,36.0,35.0,29.34,NNE,13,0.0,5.0,98,0.00,,,0.00,0.000000,,2013-01-29 11:02:00,
2013-01-29 06:10:00,34.0,34.0,29.33,NNE,30,1.0,2.0,98,0.00,,,0.00,0.000000,,2013-01-29 11:10:00,
2013-01-29 06:32:00,34.0,34.0,29.33,NNE,30,1.0,2.0,98,0.00,,,0.00,0.000000,,2013-01-29 11:32:00,
2013-01-29 06:42:00,34.0,34.0,29.33,NNE,30,1.0,2.0,98,0.00,,,0.00,0.000000,,2013-01-29 11:42:00,
2013-01-29 06:53:00,34.0,34.0,29.33,NNE,30,1.0,2.0,98,0.00,,,0.00,0.000000,,2013-01-29 11:53:00,
2013-01-29 07:03:00,34.0,34.0,29.33,NNE,30,1.0,2.0,98,0.00,,,0.00,0.000000,,2013-01-29 12:03:00,
2013-01-29 07:10:00,34.0,34.0,29.34,NW,326,1.0,3.0,98,0.00,,,0.00,0.000000,,2013-01-29 12:10:00,
2013-01-29 07:33:00,34.0,34.0,29.34,NW,326,1.0,3.0,98,0.00,,,0.00,0.000000,,2013-01-29 12:33:00,
2013-01-29 07:43:00,34.0,34.0,29.34,NW,326,1.0,3.0,98,0.00,,,0.00,0.000000,,2013-01-29 12:43:00,
2013-01-29 07:53:00,34.0,34.0,29.34,NW,326,1.0,3.0,98,0.00,,,0.00,0.000000,,2013-01-29 12:53:00,
2013-01-29 08:02:00,34.0,34.0,29.34,NW,326,1.0,3.0,98,0.00,,,0.00,0.000000,,2013-01-29 13:02:00,
2013-01-29 08:10:00,34.0,34.0,29.34,WNW,299,1.0,4.0,98,0.00,,,0.00,0.000000,,2013-01-29 13:10:00,
2013-01-29 08:43:00,34.0,34.0,29.34,WNW,299,1.0,4.0,98,0.00,,,0.00,0.000000,,2013-01-29 13:43:00,
2013-01-29 08:53:00,34.0,34.0,29.34,WNW,299,1.0,4.0,98,0.00,,,0.00,0.000000,,2013-01-29 13:53:00,
2013-01-29 09:02:00,34.0,34.0,29.34,WNW,299,1.0,4.0,98,0.00,,,0.00,0.000000,,2013-01-29 14:02:00,
2013-01-29 09:10:00,40.0,39.0,29.34,SW,236,1.0,33.0,98,0.00,,,0.00,7.000000,,2013-01-29 14:10:00,
2013-01-29 09:33:00,40.0,39.0,29.34,SW,236,1.0,33.0,98,0.00,,,0.00,7.000000,,2013-01-29 14:33:00,
2013-01-29 09:43:00,40.0,39.0,29.34,SW,236,1.0,33.0,98,0.00,,,0.00,7.000000,,2013-01-29 14:43:00,
2013-01-29 09:53:00,40.0,39.0,29.34,SW,236,1.0,33.0,98,0.00,,,0.00,7.000000,,2013-01-29 14:53:00,
2013-01-29 10:03:00,40.0,39.0,29.34,SW,236,1.0,33.0,98,0.00,,,0.00,7.000000,,2013-01-29 15:03:00,
2013-01-29 10:10:00,52.0,45.0,29.33,East,86,2.0,20.0,78,0.00,,,0.00,67.000000,,2013-01-29 15:10:00,
2013-01-29 10:33:00,52.0,45.0,29.33,East,86,2.0,20.0,78,0.00,,,0.00,67.000000,,2013-01-29 15:33:00,
2013-01-29 10:43:00,52.0,45.0,29.33,East,86,2.0,20.0,78,0.00,,,0.00,67.000000,,2013-01-29 15:43:00,
2013-01-29 10:53:00,52.0,45.0,29.33,East,86,2.0,20.0,78,0.00,,,0.00,67.000000,,2013-01-29 15:53:00,
2013-01-29 11:03:00,52.0,45.0,29.33,East,86,2.0,20.0,78,0.00,,,0.00,67.000000,,2013-01-29 16:03:00,
2013-01-29 11:10:00,62.0,47.0,29.32,SE,126,2.0,6.0,58,0.00,,,0.00,195.000000,,2013-01-29 16:10:00,
2013-01-29 11:43:00,62.0,47.0,29.32,SE,126,2.0,6.0,58,0.00,,,0.00,195.000000,,2013-01-29 16:43:00,
2013-01-29 11:53:00,62.0,47.0,29.32,SE,126,2.0,6.0,58,0.00,,,0.00,195.000000,,2013-01-29 16:53:00,
2013-01-29 12:03:00,62.0,47.0,29.32,SE,126,2.0,6.0,58,0.00,,,0.00,195.000000,,2013-01-29 17:03:00,
2013-01-29 12:10:00,71.0,52.0,29.28,ESE,112,4.0,10.0,52,0.00,,,0.00,444.000000,,2013-01-29 17:10:00,
2013-01-29 12:42:00,71.0,52.0,29.28,ESE,112,4.0,10.0,52,0.00,,,0.00,444.000000,,2013-01-29 17:42:00,
2013-01-29 12:53:00,71.0,52.0,29.28,ESE,112,4.0,10.0,52,0.00,,,0.00,444.000000,,2013-01-29 17:53:00,
2013-01-29 13:04:00,71.0,52.0,29.28,ESE,112,4.0,10.0,52,0.00,,,0.00,444.000000,,2013-01-29 18:04:00,
2013-01-29 13:10:00,72.0,54.0,29.24,SSE,166,7.0,20.0,53,0.00,,,0.00,501.000000,,2013-01-29 18:10:00,
2013-01-29 13:33:00,72.0,54.0,29.24,SSE,166,7.0,20.0,53,0.00,,,0.00,501.000000,,2013-01-29 18:33:00,
2013-01-29 13:42:00,72.0,54.0,29.24,SSE,166,7.0,20.0,53,0.00,,,0.00,501.000000,,2013-01-29 18:42:00,
2013-01-29 13:52:00,72.0,54.0,29.24,SSE,166,7.0,20.0,53,0.00,,,0.00,501.000000,,2013-01-29 18:52:00,
2013-01-29 14:03:00,72.0,54.0,29.24,SSE,166,7.0,20.0,53,0.00,,,0.00,501.000000,,2013-01-29 19:03:00,
2013-01-29 14:10:00,69.0,54.0,29.22,South,171,7.0,20.0,59,0.00,,,0.00,625.000000,,2013-01-29 19:10:00,
2013-01-29 14:42:00,69.0,54.0,29.22,South,171,7.0,20.0,59,0.00,,,0.00,625.000000,,2013-01-29 19:42:00,
2013-01-29 14:52:00,69.0,54.0,29.22,South,171,7.0,20.0,59,0.00,,,0.00,625.000000,,2013-01-29 19:52:00,
2013-01-29 15:03:00,69.0,54.0,29.22,South,171,7.0,20.0,59,0.00,,,0.00,625.000000,,2013-01-29 20:03:00,
2013-01-29 15:10:00,70.0,56.0,29.22,South,178,7.0,24.0,61,0.00,,,0.00,430.000000,,2013-01-29 20:10:00,
2013-01-29 15:33:00,70.0,56.0,29.22,South,178,7.0,24.0,61,0.00,,,0.00,430.000000,,2013-01-29 20:33:00,
2013-01-29 15:42:00,70.0,56.0,29.22,South,178,7.0,24.0,61,0.00,,,0.00,430.000000,,2013-01-29 20:42:00,
2013-01-29 15:53:00,70.0,56.0,29.22,South,178,7.0,24.0,61,0.00,,,0.00,430.000000,,2013-01-29 20:53:00,
2013-01-29 16:03:00,70.0,56.0,29.22,South,178,7.0,24.0,61,0.00,,,0.00,430.000000,,2013-01-29 21:03:00,
2013-01-29 16:10:00,70.0,57.0,29.21,West,259,5.0,22.0,63,0.00,,,0.00,250.000000,,2013-01-29 21:10:00,
2013-01-29 16:42:00,70.0,57.0,29.21,West,259,5.0,22.0,63,0.00,,,0.00,250.000000,,2013-01-29 21:42:00,
2013-01-29 16:53:00,70.0,57.0,29.21,West,259,5.0,22.0,63,0.00,,,0.00,250.000000,,2013-01-29 21:53:00,
2013-01-29 17:03:00,70.0,57.0,29.21,West,259,5.0,22.0,63,0.00,,,0.00,250.000000,,2013-01-29 22:03:00,
2013-01-29 17:10:00,66.0,55.0,29.20,South,182,5.0,16.0,68,0.00,,,0.00,176.000000,,2013-01-29 22:10:00,
2013-01-29 17:43:00,66.0,55.0,29.20,South,182,5.0,16.0,68,0.00,,,0.00,176.000000,,2013-01-29 22:43:00,
2013-01-29 17:53:00,66.0,55.0,29.20,South,182,5.0,16.0,68,0.00,,,0.00,176.000000,,2013-01-29 22:53:00,
2013-01-29 18:02:00,66.0,55.0,29.20,South,182,5.0,16.0,68,0.00,,,0.00,176.000000,,2013-01-29 23:02:00,
2013-01-29 18:10:00,63.0,55.0,29.20,West,269,4.0,13.0,74,0.00,,,0.00,111.000000,,2013-01-29 23:10:00,
2013-01-29 18:33:00,63.0,55.0,29.20,West,269,4.0,13.0,74,0.00,,,0.00,111.000000,,2013-01-29 23:33:00,
2013-01-29 18:42:00,63.0,55.0,29.20,West,269,4.0,13.0,74,0.00,,,0.00,111.000000,,2013-01-29 23:42:00,
2013-01-29 18:53:00,63.0,55.0,29.20,West,269,4.0,13.0,74,0.00,,,0.00,111.000000,,2013-01-29 23:53:00,
2013-01-29 19:03:00,63.0,55.0,29.20,West,269,4.0,13.0,74,0.00,,,0.00,111.000000,,2013-01-30 00:03:00,
2013-01-29 19:10:00,62.0,54.0,29.20,South,175,2.0,10.0,76,0.00,,,0.00,20.000000,,2013-01-30 00:10:00,
2013-01-29 19:33:00,62.0,54.0,29.20,South,175,2.0,10.0,76,0.00,,,0.00,20.000000,,2013-01-30 00:33:00,
2013-01-29 19:43:00,62.0,54.0,29.20,South,175,2.0,10.0,76,0.00,,,0.00,20.000000,,2013-01-30 00:43:00,
2013-01-29 19:53:00,62.0,54.0,29.20,South,175,2.0,10.0,76,0.00,,,0.00,20.000000,,2013-01-30 00:53:00,
2013-01-29 20:02:00,62.0,54.0,29.20,South,175,2.0,10.0,76,0.00,,,0.00,20.000000,,2013-01-30 01:02:00,
2013-01-29 20:10:00,63.0,57.0,29.19,SSW,212,1.0,5.0,80,0.00,,,0.00,0.000000,,2013-01-30 01:10:00,
2013-01-29 20:32:00,63.0,57.0,29.19,SSW,212,1.0,5.0,80,0.00,,,0.00,0.000000,,2013-01-30 01:32:00,
2013-01-29 20:43:00,63.0,57.0,29.19,SSW,212,1.0,5.0,80,0.00,,,0.00,0.000000,,2013-01-30 01:43:00,
2013-01-29 20:52:00,63.0,57.0,29.19,SSW,212,1.0,5.0,80,0.00,,,0.00,0.000000,,2013-01-30 01:52:00,
2013-01-29 21:02:00,63.0,57.0,29.19,SSW,212,1.0,5.0,80,0.00,,,0.00,0.000000,,2013-01-30 02:02:00,
2013-01-29 21:10:00,61.0,56.0,29.19,SSE,166,1.0,4.0,85,0.00,,,0.00,0.000000,,2013-01-30 02:10:00,
2013-01-29 21:33:00,61.0,56.0,29.19,SSE,166,1.0,4.0,85,0.00,,,0.00,0.000000,,2013-01-30 02:33:00,
2013-01-29 21:42:00,61.0,56.0,29.19,SSE,166,1.0,4.0,85,0.00,,,0.00,0.000000,,2013-01-30 02:42:00,
2013-01-29 21:53:00,61.0,56.0,29.19,SSE,166,1.0,4.0,85,0.00,,,0.00,0.000000,,2013-01-30 02:53:00,
2013-01-29 22:03:00,61.0,56.0,29.19,SSE,166,1.0,4.0,85,0.00,,,0.00,0.000000,,2013-01-30 03:03:00,
2013-01-29 22:10:00,61.0,57.0,29.17,WSW,241,1.0,4.0,87,0.00,,,0.00,0.000000,,2013-01-30 03:10:00,
2013-01-29 22:32:00,61.0,57.0,29.17,WSW,241,1.0,4.0,87,0.00,,,0.00,0.000000,,2013-01-30 03:32:00,
2013-01-29 22:42:00,61.0,57.0,29.17,WSW,241,1.0,4.0,87,0.00,,,0.00,0.000000,,2013-01-30 03:42:00,
2013-01-29 22:52:00,61.0,57.0,29.17,WSW,241,1.0,4.0,87,0.00,,,0.00,0.000000,,2013-01-30 03:52:00,
2013-01-29 23:02:00,61.0,57.0,29.17,WSW,241,1.0,4.0,87,0.00,,,0.00,0.000000,,2013-01-30 04:02:00,
2013-01-29 23:10:00,59.0,55.0,29.16,South,175,1.0,4.0,87,0.00,,,0.00,0.000000,,2013-01-30 04:10:00,
2013-01-29 23:32:00,59.0,55.0,29.16,South,175,1.0,4.0,87,0.00,,,0.00,0.000000,,2013-01-30 04:32:00,
2013-01-29 23:42:00,59.0,55.0,29.16,South,175,1.0,4.0,87,0.00,,,0.00,0.000000,,2013-01-30 04:42:00,
2013-01-29 23:52:00,59.0,55.0,29.16,South,175,1.0,4.0,87,0.00,,,0.00,0.000000,,2013-01-30 04:52:00,